createdAt,value
2018-11-02T00:04:34.679Z,25.60
2018-11-02T00:09:38.400Z,26.97
2018-11-02T00:14:41.854Z,25.40
2018-11-02T00:19:45.125Z,26.00
2018-11-02T00:24:48.316Z,28.47
2018-11-02T00:29:51.934Z,28.37
2018-11-02T00:34:56.213Z,40.50
2018-11-02T00:39:59.747Z,35.23
2018-11-02T00:45:03.766Z,41.87
2018-11-02T00:50:09.304Z,27.63
2018-11-02T00:55:12.610Z,44.03
2018-11-02T01:00:17.041Z,30.93
2018-11-02T01:05:20.712Z,24.27
2018-11-02T01:10:26.993Z,35.20
2018-11-02T01:15:30.816Z,33.90
2018-11-02T01:20:34.328Z,31.47
2018-11-02T01:25:37.742Z,46.57
2018-11-02T01:30:43.370Z,43.00
2018-11-02T01:41:05.828Z,40.77
2018-11-02T01:46:19.477Z,35.53
2018-11-02T01:51:30.746Z,35.67
2018-11-02T01:56:35.775Z,29.90
2018-11-02T02:01:40.188Z,34.90
2018-11-02T02:06:44.452Z,29.77
2018-11-02T02:11:48.054Z,44.13
2018-11-02T02:16:52.417Z,35.93
2018-11-02T02:21:56.169Z,32.93
2018-11-02T02:27:00.333Z,20.67
2018-11-02T02:32:04.200Z,43.80
2018-11-02T02:37:08.093Z,37.93
2018-11-02T02:42:18.457Z,43.77
2018-11-02T02:47:22.038Z,37.33
2018-11-02T02:52:27.195Z,38.70
2018-11-02T02:57:30.570Z,33.93
2018-11-02T03:02:34.104Z,38.20
2018-11-02T03:07:37.940Z,32.13
2018-11-02T03:12:41.806Z,39.00
2018-11-02T03:17:45.209Z,52.80
2018-11-02T03:22:48.622Z,43.10
2018-11-02T03:27:51.886Z,52.80
2018-11-02T03:32:55.576Z,47.30
2018-11-02T03:37:59.464Z,40.60
2018-11-02T03:43:03.210Z,54.80
2018-11-02T03:48:06.607Z,63.13
2018-11-02T03:53:10.895Z,65.40
2018-11-02T03:58:14.135Z,58.07
2018-11-02T04:03:17.685Z,78.20
2018-11-02T04:08:22.335Z,59.30
2018-11-02T04:13:26.127Z,59.13
2018-11-02T04:18:31.035Z,49.57
2018-11-02T04:23:34.980Z,51.53
2018-11-02T04:28:38.863Z,52.67
2018-11-02T04:33:42.366Z,46.60
2018-11-02T04:38:46.001Z,50.77
2018-11-02T04:43:49.523Z,37.63
2018-11-02T04:48:54.056Z,50.07
2018-11-02T04:53:57.921Z,52.10
2018-11-02T04:59:01.657Z,48.60
2018-11-02T05:04:05.489Z,51.30
2018-11-02T05:09:09.839Z,41.70
2018-11-02T05:14:13.491Z,59.73
2018-11-02T05:19:17.842Z,54.17
2018-11-02T05:24:25.643Z,37.03
2018-11-02T05:29:29.141Z,53.47
2018-11-02T05:34:33.092Z,61.60
2018-11-02T05:39:36.672Z,49.43
2018-11-02T05:44:43.987Z,56.83
2018-11-02T05:49:47.685Z,48.57
2018-11-02T05:54:51.302Z,65.47
2018-11-02T05:59:54.730Z,50.40
2018-11-02T06:04:58.375Z,57.13
2018-11-02T06:10:01.667Z,53.83
2018-11-02T06:15:04.952Z,64.17
2018-11-02T06:20:09.463Z,59.70
2018-11-02T06:25:17.884Z,40.00
2018-11-02T06:30:24.162Z,62.03
2018-11-02T06:35:27.589Z,66.53
2018-11-02T06:40:31.740Z,63.33
2018-11-02T06:45:35.480Z,51.13
2018-11-02T06:50:42.512Z,59.80
2018-11-02T06:55:46.516Z,52.83
2018-11-02T07:00:49.799Z,46.90
2018-11-02T07:05:53.001Z,51.40
2018-11-02T07:10:56.940Z,52.27
2018-11-02T07:16:00.272Z,44.80
2018-11-02T07:21:04.039Z,46.67
2018-11-02T07:26:08.083Z,50.17
2018-11-02T07:31:12.936Z,40.90
2018-11-02T07:36:17.631Z,33.20
2018-11-02T07:41:21.146Z,44.43
2018-11-02T07:46:24.512Z,51.17
2018-11-02T07:51:32.192Z,48.00
2018-11-02T07:56:36.157Z,39.80
2018-11-02T08:01:39.981Z,38.00
2018-11-02T08:06:43.712Z,31.67
2018-11-02T08:11:48.427Z,36.30
2018-11-02T08:16:59.064Z,37.23
2018-11-02T08:22:05.090Z,25.57
2018-11-02T08:27:13.437Z,37.00
2018-11-02T08:32:19.503Z,22.37
2018-11-02T08:37:23.703Z,38.80
2018-11-02T08:42:27.576Z,40.17
2018-11-02T08:47:31.698Z,21.93
2018-11-02T08:52:35.141Z,24.47
2018-11-02T08:57:39.102Z,24.67
2018-11-02T09:02:42.641Z,22.73
2018-11-02T09:07:46.181Z,24.37
2018-11-02T09:12:50.670Z,46.43
2018-11-02T09:17:54.100Z,40.40
2018-11-02T09:22:57.862Z,36.90
2018-11-02T09:28:01.870Z,47.70
2018-11-02T09:33:05.524Z,51.10
2018-11-02T09:38:08.912Z,55.53
2018-11-02T09:43:12.868Z,64.90
2018-11-02T09:48:18.538Z,73.10
2018-11-02T09:53:27.195Z,57.20
2018-11-02T09:58:31.633Z,44.13
2018-11-02T10:03:35.141Z,52.07
2018-11-02T10:08:38.824Z,24.97
2018-11-02T10:13:42.490Z,29.93
2018-11-02T10:18:45.998Z,24.23
2018-11-02T10:23:52.017Z,21.57
2018-11-02T10:28:55.709Z,23.47
2018-11-02T10:34:01.348Z,28.50
2018-11-02T10:39:07.926Z,35.13
2018-11-02T10:44:12.886Z,17.23
2018-11-02T10:49:17.727Z,12.37
2018-11-02T10:54:21.197Z,8.33
2018-11-02T10:59:24.568Z,13.57
2018-11-02T11:04:28.141Z,14.93
2018-11-02T11:09:32.008Z,10.60
2018-11-02T11:14:36.894Z,15.50
2018-11-02T11:19:41.707Z,11.70
2018-11-02T11:25:07.230Z,19.63
2018-11-02T11:30:17.415Z,8.80
2018-11-02T11:35:21.577Z,5.57
2018-11-02T11:40:25.392Z,12.80
2018-11-02T11:45:29.952Z,12.13
2018-11-02T11:50:34.211Z,4.33
2018-11-02T11:55:38.864Z,5.13
2018-11-02T12:00:42.670Z,4.73
2018-11-02T12:05:45.885Z,10.87
2018-11-02T12:10:49.910Z,12.00
2018-11-02T12:15:53.328Z,12.60
2018-11-02T12:20:56.521Z,12.10
2018-11-02T12:26:00.463Z,10.80
2018-11-02T12:31:05.130Z,11.13
2018-11-02T12:36:18.567Z,19.83
2018-11-02T12:41:23.878Z,12.40
2018-11-02T12:46:30.664Z,12.23
2018-11-02T12:51:34.266Z,7.93
2018-11-02T12:56:38.316Z,11.17
2018-11-02T13:01:42.219Z,6.93
2018-11-02T13:06:49.673Z,7.10
2018-11-02T13:11:53.344Z,7.83
2018-11-02T13:16:56.936Z,6.40
2018-11-02T13:22:02.396Z,3.57
2018-11-02T13:27:10.791Z,5.70
2018-11-02T13:32:15.632Z,5.97
2018-11-02T13:37:19.367Z,5.50
2018-11-02T13:42:22.827Z,7.37
2018-11-02T13:47:26.592Z,12.63
2018-11-02T13:52:30.046Z,9.07
2018-11-02T13:57:33.904Z,8.43
2018-11-02T14:02:37.363Z,12.97
2018-11-02T14:07:41.195Z,17.47
2018-11-02T14:12:45.114Z,15.17
2018-11-02T14:17:48.709Z,6.80
2018-11-02T14:22:53.685Z,20.00
2018-11-02T14:27:57.577Z,23.77
2018-11-02T14:33:01.065Z,3.87
2018-11-02T14:38:05.169Z,10.10
2018-11-02T14:43:08.946Z,17.67
2018-11-02T14:48:12.500Z,13.83
2018-11-02T14:53:19.685Z,25.13
2018-11-02T14:58:23.666Z,19.03
2018-11-02T15:03:28.829Z,15.60
2018-11-02T15:08:33.570Z,13.83
2018-11-02T15:13:37.547Z,10.90
2018-11-02T15:18:41.743Z,6.93
2018-11-02T15:23:45.345Z,14.43
2018-11-02T15:28:55.025Z,15.57
2018-11-02T15:33:59.287Z,14.43
2018-11-02T15:39:05.007Z,9.97
2018-11-02T15:44:08.724Z,10.87
2018-11-02T15:49:40.939Z,18.73
2018-11-02T15:54:44.779Z,10.33
2018-11-02T15:59:48.515Z,8.13
2018-11-02T16:04:51.810Z,18.27
2018-11-02T16:09:55.677Z,13.93
2018-11-02T16:14:59.166Z,12.20
2018-11-02T16:20:03.263Z,9.77
2018-11-02T16:25:09.098Z,24.97
2018-11-02T16:30:14.377Z,22.13
2018-11-02T16:35:18.072Z,22.60
2018-11-02T16:40:22.967Z,20.07
2018-11-02T16:45:26.751Z,19.37
2018-11-02T16:50:30.202Z,16.90
2018-11-02T16:55:34.969Z,17.13
2018-11-02T17:00:48.191Z,11.57
2018-11-02T17:05:54.868Z,10.33
2018-11-02T17:11:07.937Z,20.70
2018-11-02T17:16:23.127Z,24.23
2018-11-02T17:21:28.113Z,22.80
2018-11-02T17:26:31.884Z,6.80
2018-11-02T17:31:42.441Z,7.47
2018-11-02T17:36:48.302Z,15.97
2018-11-02T17:41:51.494Z,6.40
2018-11-02T17:46:55.446Z,5.77
2018-11-02T17:51:59.310Z,4.77
2018-11-02T17:57:02.947Z,14.17
2018-11-02T18:02:07.595Z,12.87
2018-11-02T18:07:11.122Z,9.20
2018-11-02T18:12:16.988Z,7.10
2018-11-02T18:17:20.907Z,14.00
2018-11-02T18:22:25.085Z,10.20
2018-11-02T18:27:28.601Z,8.73
2018-11-02T18:32:32.090Z,9.10
2018-11-02T18:37:36.040Z,13.00
2018-11-02T18:48:02.179Z,20.03
2018-11-02T18:53:06.648Z,8.27
2018-11-02T18:58:11.350Z,12.30
2018-11-02T19:03:15.006Z,20.23
2018-11-02T19:08:18.414Z,5.07
2018-11-02T19:13:22.096Z,10.20
2018-11-02T19:18:59.962Z,9.70
2018-11-02T19:24:10.533Z,8.60
2018-11-02T19:29:14.633Z,14.17
2018-11-02T19:34:19.119Z,15.17
2018-11-02T19:39:22.689Z,14.03
2018-11-02T19:44:28.651Z,14.67
2018-11-02T19:49:35.319Z,12.73
2018-11-02T19:54:39.080Z,7.77
2018-11-02T19:59:44.614Z,14.73
2018-11-02T20:04:50.195Z,11.63
2018-11-02T20:09:55.302Z,15.13
2018-11-02T20:14:58.546Z,20.17
2018-11-02T20:20:02.423Z,32.77
2018-11-02T20:25:13.695Z,16.23
2018-11-02T20:30:18.746Z,6.20
2018-11-02T20:35:24.459Z,12.43
2018-11-02T20:40:33.545Z,10.03
2018-11-02T20:45:42.115Z,13.43
2018-11-02T20:50:54.861Z,13.97
2018-11-02T20:55:59.692Z,5.83
2018-11-02T21:01:03.399Z,10.03
2018-11-02T21:06:07.983Z,12.83
2018-11-02T21:11:16.130Z,12.33
2018-11-02T21:16:21.360Z,9.37
2018-11-02T21:21:25.990Z,7.70
2018-11-02T21:26:35.734Z,13.33
2018-11-02T21:31:46.422Z,8.87
2018-11-02T21:36:51.705Z,17.47
2018-11-02T21:47:44.630Z,14.13
2018-11-02T21:52:55.906Z,3.50
2018-11-02T21:58:06.963Z,9.67
2018-11-02T22:03:10.460Z,17.20
2018-11-02T22:08:29.080Z,2.70
2018-11-02T22:13:32.810Z,5.53
2018-11-02T22:18:36.294Z,11.33
2018-11-02T22:23:55.373Z,5.70
2018-11-02T22:28:59.696Z,8.27
2018-11-02T22:34:05.758Z,12.73
2018-11-02T22:39:11.102Z,5.00
2018-11-02T22:44:15.427Z,2.97
2018-11-02T22:49:19.107Z,4.87
2018-11-02T22:54:22.326Z,14.30
2018-11-02T22:59:26.250Z,2.87
2018-11-02T23:04:32.865Z,9.43
2018-11-02T23:09:38.187Z,6.63
2018-11-02T23:14:41.661Z,5.10
2018-11-02T23:19:45.041Z,4.20
2018-11-02T23:24:48.948Z,3.40
2018-11-02T23:29:52.453Z,11.77
2018-11-02T23:34:56.672Z,7.87
2018-11-02T23:40:01.827Z,10.33
2018-11-02T23:45:06.175Z,3.73
2018-11-02T23:50:10.285Z,4.03
2018-11-02T23:55:13.689Z,2.80
